createdAt,value
2023-06-22T03:31:31.369Z,97025.66
2023-06-22T03:33:59.084Z,97031.91
2023-06-22T03:36:27.718Z,97033.84
2023-06-22T03:38:54.948Z,97033.63
2023-06-22T03:41:22.242Z,97031.34
2023-06-22T03:43:50.126Z,97025.59
2023-06-22T03:46:17.711Z,97034.53
2023-06-22T03:48:44.878Z,97036.88
2023-06-22T03:51:12.025Z,97033.06
2023-06-22T03:53:39.138Z,97044.81
2023-06-22T03:56:06.288Z,97045.50
2023-06-22T03:58:34.758Z,97044.81
2023-06-22T04:01:01.955Z,97047.78
2023-06-22T04:03:29.166Z,97040.59
2023-06-22T04:05:56.393Z,97036.41
2023-06-22T04:08:23.459Z,97035.72
2023-06-22T04:10:50.758Z,97038.34
2023-06-22T04:13:17.840Z,97040.31
2023-06-22T04:15:44.905Z,97039.81
2023-06-22T04:18:12.091Z,97037.97
2023-06-22T04:20:39.264Z,97037.25
2023-06-22T04:23:06.327Z,97032.97
2023-06-22T04:25:33.376Z,97034.34
2023-06-22T04:28:00.539Z,97035.16
2023-06-22T04:30:27.833Z,97037.88
2023-06-22T04:32:59.090Z,97046.53
2023-06-22T04:35:26.379Z,97034.88
2023-06-22T04:37:56.470Z,97033.19
2023-06-22T04:40:24.234Z,97043.81
2023-06-22T04:42:55.020Z,97043.91
2023-06-22T04:45:22.529Z,97038.94
2023-06-22T04:47:50.114Z,97048.13
2023-06-22T04:50:18.475Z,97046.63
2023-06-22T04:52:46.755Z,97053.53
2023-06-22T04:55:15.638Z,97062.47
2023-06-22T04:57:49.337Z,97063.13
2023-06-22T05:00:20.751Z,97062.28
2023-06-22T05:02:47.975Z,97059.94
2023-06-22T05:05:15.605Z,97058.13
2023-06-22T05:07:44.448Z,97054.25
2023-06-22T05:10:13.454Z,97056.13
2023-06-22T05:12:41.544Z,97055.41
2023-06-22T05:15:09.216Z,97047.34
2023-06-22T05:17:36.836Z,97042.75
2023-06-22T05:20:07.511Z,97045.81
2023-06-22T05:22:35.047Z,97042.06
2023-06-22T05:25:02.085Z,97035.72
2023-06-22T05:27:29.339Z,97033.25
2023-06-22T05:29:56.468Z,97039.13
2023-06-22T05:32:23.826Z,97032.63
2023-06-22T05:34:51.122Z,97036.53
2023-06-22T05:37:18.372Z,97050.34
2023-06-22T05:39:45.624Z,97044.22
2023-06-22T05:42:12.723Z,97039.72
2023-06-22T05:44:41.859Z,97040.69
2023-06-22T05:47:11.786Z,97039.38
2023-06-22T05:49:38.830Z,97029.53
2023-06-22T05:52:06.017Z,97020.94
2023-06-22T05:54:33.133Z,97017.69
2023-06-22T05:57:00.191Z,97017.47
2023-06-22T05:59:27.261Z,97009.00
2023-06-22T06:01:54.649Z,97000.69
2023-06-22T06:04:22.080Z,96996.41
2023-06-22T06:06:49.319Z,97010.97
2023-06-22T06:09:16.516Z,97007.34
2023-06-22T06:11:44.102Z,97003.59
2023-06-22T06:14:11.572Z,97018.22
2023-06-22T06:16:38.818Z,97001.38
2023-06-22T06:19:05.997Z,96997.41
2023-06-22T06:21:33.167Z,97001.66
2023-06-22T06:24:00.615Z,96998.22
2023-06-22T06:26:30.956Z,96993.84
2023-06-22T06:28:58.690Z,96994.94
2023-06-22T06:31:26.141Z,96990.41
2023-06-22T06:33:55.065Z,96993.75
2023-06-22T06:36:22.324Z,96998.16
2023-06-22T06:38:49.384Z,96987.38
2023-06-22T06:41:17.777Z,96992.75
2023-06-22T06:43:44.988Z,96992.13
2023-06-22T06:46:12.551Z,96979.41
2023-06-22T06:48:40.906Z,96986.22
2023-06-22T06:51:10.575Z,96977.38
2023-06-22T06:53:39.397Z,96977.19
2023-06-22T06:56:08.236Z,96965.09
2023-06-22T06:58:35.371Z,96958.31
2023-06-22T07:01:02.509Z,96953.03
2023-06-22T07:03:29.608Z,96967.06
2023-06-22T07:05:56.924Z,96960.19
2023-06-22T07:08:24.380Z,96971.34
2023-06-22T07:10:52.104Z,96976.34
2023-06-22T07:13:19.251Z,96967.06
2023-06-22T07:15:46.519Z,96960.50
2023-06-22T07:18:14.657Z,96975.22
2023-06-22T07:20:42.999Z,96960.09
2023-06-22T07:23:10.076Z,96970.19
2023-06-22T07:25:37.194Z,96964.53
2023-06-22T07:28:06.121Z,96966.38
2023-06-22T07:30:34.377Z,96951.56
2023-06-22T07:33:05.776Z,96955.81
2023-06-22T07:35:33.034Z,96947.41
2023-06-22T07:38:03.158Z,96944.44
2023-06-22T07:40:32.806Z,96947.25
2023-06-22T07:43:00.185Z,96947.47
2023-06-22T07:45:27.420Z,96940.28
2023-06-22T07:47:54.575Z,96941.41
2023-06-22T07:50:21.785Z,96921.97
2023-06-22T07:52:49.416Z,96930.47
2023-06-22T07:55:17.153Z,96924.38
2023-06-22T07:57:44.265Z,96920.75
2023-06-22T08:00:16.015Z,96920.38
2023-06-22T08:02:45.689Z,96922.81
2023-06-22T08:05:21.070Z,96935.88
2023-06-22T08:07:55.388Z,96933.94
2023-06-22T08:10:22.841Z,96933.53
2023-06-22T08:12:49.931Z,96937.81
2023-06-22T08:15:17.057Z,96925.28
2023-06-22T08:17:45.520Z,96923.69
2023-06-22T08:20:16.097Z,96921.69
2023-06-22T08:22:44.084Z,96925.22
2023-06-22T08:25:11.589Z,96918.22
2023-06-22T08:27:38.788Z,96912.72
2023-06-22T08:30:06.594Z,96908.00
2023-06-22T08:32:36.705Z,96911.16
2023-06-22T08:35:04.432Z,96912.69
2023-06-22T08:37:32.417Z,96909.47
2023-06-22T08:40:09.443Z,96920.34
2023-06-22T08:42:37.267Z,96921.16
2023-06-22T08:45:05.922Z,96912.53
2023-06-22T08:47:35.802Z,96917.59
2023-06-22T08:50:04.680Z,96918.28
2023-06-22T08:52:32.546Z,96925.00
2023-06-22T08:54:59.877Z,96919.38
2023-06-22T08:57:27.550Z,96905.31
2023-06-22T08:59:54.736Z,96910.47
2023-06-22T09:02:22.479Z,96910.56
2023-06-22T09:04:51.432Z,96908.31
2023-06-22T09:07:23.657Z,96909.09
2023-06-22T09:09:51.089Z,96900.88
2023-06-22T09:12:21.108Z,96898.50
2023-06-22T09:14:48.282Z,96890.94
2023-06-22T09:17:15.455Z,96885.97
2023-06-22T09:19:43.710Z,96897.84
2023-06-22T09:22:12.918Z,96891.38
2023-06-22T09:24:40.003Z,96897.06
2023-06-22T09:27:07.063Z,96895.25
2023-06-22T09:29:36.878Z,96895.56
2023-06-22T09:32:04.478Z,96887.69
2023-06-22T09:34:32.718Z,96892.75
2023-06-22T09:37:01.916Z,96879.69
2023-06-22T09:39:29.347Z,96881.31
2023-06-22T09:41:56.496Z,96886.22
2023-06-22T09:44:23.590Z,96879.13
2023-06-22T09:46:50.646Z,96874.75
2023-06-22T09:49:17.842Z,96875.94
2023-06-22T09:51:45.014Z,96873.81
2023-06-22T09:54:12.090Z,96867.28
2023-06-22T09:56:39.635Z,96869.53
2023-06-22T09:59:17.724Z,96865.56
2023-06-22T10:01:46.048Z,96867.66
2023-06-22T10:04:13.424Z,96872.44
2023-06-22T10:06:41.953Z,96869.91
2023-06-22T10:09:09.444Z,96859.28
2023-06-22T10:11:36.825Z,96857.69
2023-06-22T10:14:05.352Z,96855.31
2023-06-22T10:16:32.864Z,96850.94
2023-06-22T10:19:00.034Z,96850.94
2023-06-22T10:21:28.652Z,96851.06
2023-06-22T10:23:56.774Z,96850.94
2023-06-22T10:26:23.884Z,96849.84
2023-06-22T10:28:57.517Z,96841.19
2023-06-22T10:31:28.647Z,96845.72
2023-06-22T10:33:56.184Z,96837.97
2023-06-22T10:36:23.638Z,96834.28
2023-06-22T10:38:50.844Z,96827.22
2023-06-22T10:41:18.405Z,96822.47
2023-06-22T10:43:45.461Z,96824.69
2023-06-22T10:46:12.518Z,96827.28
2023-06-22T10:48:39.584Z,96825.69
2023-06-22T10:51:06.895Z,96823.44
2023-06-22T10:53:33.976Z,96818.00
2023-06-22T10:56:01.567Z,96810.63
2023-06-22T10:58:28.878Z,96810.06
2023-06-22T11:00:56.085Z,96804.44
2023-06-22T11:03:23.259Z,96806.47
2023-06-22T11:05:50.734Z,96807.03
2023-06-22T11:08:18.047Z,96817.03
2023-06-22T11:10:45.188Z,96818.16
2023-06-22T11:13:12.429Z,96811.34
2023-06-22T11:15:40.391Z,96813.34
2023-06-22T11:18:08.678Z,96800.47
2023-06-22T11:20:40.019Z,96792.16
2023-06-22T11:23:08.551Z,96790.84
2023-06-22T11:25:39.515Z,96784.94
2023-06-22T11:28:06.649Z,96789.09
2023-06-22T11:30:33.832Z,96779.59
2023-06-22T11:33:01.244Z,96778.53
2023-06-22T11:35:28.480Z,96775.84
2023-06-22T11:37:57.285Z,96776.78
2023-06-22T11:40:24.639Z,96773.00
2023-06-22T11:42:51.728Z,96783.09
2023-06-22T11:45:19.410Z,96778.34
2023-06-22T11:47:46.493Z,96769.56
2023-06-22T11:50:14.115Z,96772.28
2023-06-22T11:52:41.273Z,96758.56
2023-06-22T11:55:09.091Z,96760.66
2023-06-22T11:57:40.089Z,96759.56
2023-06-22T12:00:15.337Z,96756.59
2023-06-22T12:02:42.499Z,96752.44
2023-06-22T12:05:09.768Z,96752.78
2023-06-22T12:07:36.872Z,96742.59
2023-06-22T12:10:04.160Z,96751.69
2023-06-22T12:12:31.226Z,96734.25
2023-06-22T12:14:58.287Z,96735.41
2023-06-22T12:17:25.798Z,96730.09
2023-06-22T12:19:52.948Z,96728.38
2023-06-22T12:22:20.107Z,96723.81
2023-06-22T12:24:47.245Z,96713.63
2023-06-22T12:27:17.700Z,96716.66
2023-06-22T12:29:46.878Z,96724.13
2023-06-22T12:32:14.959Z,96720.50
2023-06-22T12:34:43.317Z,96718.09
2023-06-22T12:37:10.597Z,96715.09
2023-06-22T12:39:37.918Z,96709.94
2023-06-22T12:42:05.575Z,96701.28
2023-06-22T12:44:32.675Z,96702.78
2023-06-22T12:46:59.721Z,96704.81
2023-06-22T12:49:26.826Z,96699.00
2023-06-22T12:51:53.881Z,96688.38
2023-06-22T12:54:20.990Z,96682.22
2023-06-22T12:56:48.261Z,96676.06
2023-06-22T12:59:15.512Z,96675.06
2023-06-22T13:01:42.681Z,96676.44
2023-06-22T13:04:12.281Z,96686.66
2023-06-22T13:06:39.346Z,96678.34
2023-06-22T13:09:20.793Z,96678.59
2023-06-22T13:11:48.783Z,96683.84
2023-06-22T13:14:17.366Z,96694.31
2023-06-22T13:16:44.674Z,96691.38
2023-06-22T13:19:11.752Z,96687.44
2023-06-22T13:21:38.883Z,96686.50
2023-06-22T13:24:07.552Z,96677.56
2023-06-22T13:26:34.799Z,96673.19
2023-06-22T13:29:01.851Z,96666.03
2023-06-22T13:31:28.986Z,96657.91
2023-06-22T13:33:56.118Z,96664.94
2023-06-22T13:36:24.483Z,96662.38
2023-06-22T13:38:51.548Z,96658.94
2023-06-22T13:41:18.634Z,96655.59
2023-06-22T13:43:45.694Z,96664.28
2023-06-22T13:46:13.062Z,96660.56
2023-06-22T13:48:40.727Z,96665.38
2023-06-22T13:51:08.086Z,96653.31
2023-06-22T13:53:35.126Z,96657.28
2023-06-22T13:56:02.258Z,96660.16
2023-06-22T13:58:29.381Z,96654.69
2023-06-22T14:00:57.054Z,96651.78
2023-06-22T14:03:24.834Z,96651.06
2023-06-22T14:05:55.393Z,96643.63
2023-06-22T14:10:55.793Z,96640.88
2023-06-22T14:13:22.921Z,96644.84
2023-06-22T14:15:52.938Z,96643.41
2023-06-22T14:18:19.976Z,96636.19
2023-06-22T14:20:48.697Z,96641.28
2023-06-22T14:23:15.795Z,96629.41
2023-06-22T14:25:43.054Z,96625.44
2023-06-22T14:28:10.140Z,96618.25
2023-06-22T14:30:37.292Z,96623.41
2023-06-22T14:33:04.412Z,96619.41
2023-06-22T14:35:31.588Z,96625.75
2023-06-22T14:37:58.711Z,96614.69
2023-06-22T14:40:26.910Z,96622.09
2023-06-22T14:42:54.402Z,96623.59
2023-06-22T14:45:21.432Z,96619.34
2023-06-22T14:47:48.572Z,96612.88
2023-06-22T14:50:15.684Z,96603.13
2023-06-22T14:52:44.969Z,96606.91
2023-06-22T14:55:12.194Z,96596.19
2023-06-22T14:57:39.508Z,96596.84
2023-06-22T15:00:07.816Z,96589.91
2023-06-22T15:02:35.002Z,96597.59
2023-06-22T15:05:02.367Z,96582.03
2023-06-22T15:07:29.464Z,96585.47
2023-06-22T15:09:56.566Z,96583.63
2023-06-22T15:12:23.757Z,96579.31
2023-06-22T15:14:50.876Z,96576.50
2023-06-22T15:17:17.940Z,96562.66
2023-06-22T15:19:45.130Z,96562.50
2023-06-22T15:22:12.305Z,96549.47
2023-06-22T15:24:39.435Z,96552.09
2023-06-22T15:27:06.747Z,96544.34
2023-06-22T15:29:35.489Z,96534.84
2023-06-22T15:32:02.740Z,96530.09
2023-06-22T15:34:30.222Z,96526.22
2023-06-22T15:36:57.312Z,96517.09
2023-06-22T15:39:26.093Z,96512.03
2023-06-22T15:41:55.352Z,96515.34
2023-06-22T15:44:25.560Z,96502.78
2023-06-22T15:46:52.646Z,96495.22
2023-06-22T15:49:19.823Z,96493.47
2023-06-22T15:51:47.059Z,96478.50
2023-06-22T15:54:14.252Z,96481.72
2023-06-22T15:56:41.387Z,96468.66
2023-06-22T15:59:08.469Z,96472.09
2023-06-22T16:01:35.798Z,96462.06
2023-06-22T16:04:04.205Z,96462.63
2023-06-22T16:06:31.901Z,96462.22
2023-06-22T16:08:59.413Z,96466.22
2023-06-22T16:11:26.574Z,96462.16
2023-06-22T16:13:53.721Z,96456.94
2023-06-22T16:16:20.863Z,96468.22
2023-06-22T16:18:48.589Z,96462.13
2023-06-22T16:21:16.379Z,96465.66
2023-06-22T16:23:43.531Z,96464.66
2023-06-22T16:26:10.608Z,96462.53
2023-06-22T16:28:37.723Z,96450.69
2023-06-22T16:31:04.738Z,96450.25
2023-06-22T16:33:31.832Z,96453.00
2023-06-22T16:35:59.166Z,96445.97
2023-06-22T16:38:26.475Z,96437.22
2023-06-22T16:40:53.641Z,96434.88
2023-06-22T16:43:22.880Z,96436.22
2023-06-22T16:45:50.071Z,96433.72
2023-06-22T16:48:17.128Z,96427.22
2023-06-22T16:50:44.276Z,96424.22
2023-06-22T16:53:11.406Z,96415.66
2023-06-22T16:55:38.837Z,96394.75
2023-06-22T16:58:06.017Z,96372.28
2023-06-22T17:00:33.310Z,96361.31
2023-06-22T17:03:01.818Z,96345.34
2023-06-22T17:05:29.226Z,96357.28
2023-06-22T17:07:59.408Z,96385.97
2023-06-22T17:10:28.430Z,96411.84
2023-06-22T17:12:58.060Z,96437.28
2023-06-22T17:15:25.860Z,96447.38
2023-06-22T17:17:54.389Z,96440.84
2023-06-22T17:20:21.457Z,96455.81
2023-06-22T17:22:48.553Z,96461.38
2023-06-22T17:25:15.777Z,96465.63
2023-06-22T17:27:43.084Z,96463.91
2023-06-22T17:30:18.948Z,96452.41
2023-06-22T17:32:49.469Z,96455.88
2023-06-22T17:35:16.721Z,96475.31
2023-06-22T17:37:57.688Z,96481.25
2023-06-22T17:40:27.317Z,96486.38
2023-06-22T17:43:06.069Z,96473.19
2023-06-22T17:45:33.609Z,96485.09
2023-06-22T17:48:00.757Z,96498.53
2023-06-22T17:50:27.810Z,96502.84
2023-06-22T17:52:56.802Z,96505.53
2023-06-22T17:55:24.458Z,96518.47
2023-06-22T17:57:58.135Z,96534.06
2023-06-22T18:00:28.857Z,96543.22
2023-06-22T18:02:56.452Z,96552.97
2023-06-22T18:05:34.287Z,96590.22
2023-06-22T18:08:04.069Z,96614.84
2023-06-22T18:10:37.468Z,96629.09
2023-06-22T18:13:05.748Z,96627.09
2023-06-22T18:15:33.716Z,96616.94
2023-06-22T18:18:01.240Z,96618.31
2023-06-22T18:20:29.733Z,96621.66
2023-06-22T18:22:59.922Z,96582.56
2023-06-22T18:25:26.960Z,96547.22
2023-06-22T18:27:54.007Z,96509.13
2023-06-22T18:30:21.082Z,96462.22
2023-06-22T18:32:49.909Z,96423.50
2023-06-22T18:35:17.072Z,96411.16
2023-06-22T18:37:46.089Z,96414.47
2023-06-22T18:40:16.353Z,96417.53
2023-06-22T18:42:47.176Z,96414.16
2023-06-22T18:45:30.381Z,96433.28
2023-06-22T18:48:02.497Z,96446.06
2023-06-22T18:50:44.841Z,96465.78
2023-06-22T18:53:16.097Z,96484.81
2023-06-22T18:55:44.597Z,96503.31
2023-06-22T18:58:20.732Z,96532.25
2023-06-22T19:00:48.158Z,96543.19
2023-06-22T19:03:32.245Z,96518.06
2023-06-22T19:05:59.522Z,96518.78
2023-06-22T19:08:27.980Z,96528.16
2023-06-22T19:10:55.083Z,96588.78
2023-06-22T19:13:22.170Z,96592.59
2023-06-22T19:16:22.444Z,96610.53
2023-06-22T19:18:50.745Z,96592.06
2023-06-22T19:21:23.055Z,96576.63
2023-06-22T19:23:50.267Z,96541.44
2023-06-22T19:26:18.806Z,96521.38
2023-06-22T19:28:46.756Z,96506.28
2023-06-22T19:31:13.930Z,96490.16
2023-06-22T19:33:41.532Z,96487.41
2023-06-22T19:36:08.663Z,96485.06
2023-06-22T19:38:35.833Z,96482.31
2023-06-22T19:41:03.106Z,96481.69
2023-06-22T19:43:30.606Z,96479.50
2023-06-22T19:45:58.206Z,96483.03
2023-06-22T19:48:30.042Z,96473.69
2023-06-22T19:51:07.437Z,96492.09
2023-06-22T19:53:34.719Z,96504.16
2023-06-22T19:56:02.642Z,96543.09
2023-06-22T19:58:33.020Z,96535.31
2023-06-22T20:01:03.265Z,96537.47
2023-06-22T20:03:31.877Z,96534.94
2023-06-22T20:06:13.217Z,96620.47
2023-06-22T20:08:45.156Z,96643.94
2023-06-22T20:11:12.458Z,96667.13
2023-06-22T20:13:49.243Z,96694.88
2023-06-22T20:16:17.369Z,96738.53
2023-06-22T20:18:45.719Z,96813.81
2023-06-22T20:21:13.670Z,96933.06
2023-06-22T20:23:43.962Z,96967.41
2023-06-22T20:26:11.644Z,96886.97
2023-06-22T20:28:39.466Z,96876.25
2023-06-22T20:31:07.533Z,96801.22
2023-06-22T20:33:34.885Z,96755.78
2023-06-22T20:36:02.025Z,96718.53
2023-06-22T20:38:29.531Z,96689.72
2023-06-22T20:40:57.196Z,96695.84
2023-06-22T20:43:25.137Z,96691.13
2023-06-22T20:45:55.598Z,96693.47
2023-06-22T20:48:37.829Z,96705.59
2023-06-22T20:51:06.363Z,96759.03
2023-06-22T20:53:33.593Z,96803.66
2023-06-22T20:56:00.928Z,96821.03
2023-06-22T20:58:27.994Z,96782.22
2023-06-22T21:00:56.248Z,96756.09
2023-06-22T21:03:23.535Z,96739.81
2023-06-22T21:05:50.701Z,96745.84
2023-06-22T21:08:18.116Z,96748.31
2023-06-22T21:10:45.266Z,96757.50
2023-06-22T21:13:12.554Z,96760.94
2023-06-22T21:15:39.620Z,96778.63
2023-06-22T21:18:06.827Z,96784.91
2023-06-22T21:20:33.899Z,96797.31
2023-06-22T21:23:01.131Z,96779.28
2023-06-22T21:25:28.258Z,96765.53
2023-06-22T21:27:55.301Z,96768.66
2023-06-22T21:30:22.506Z,96761.81
2023-06-22T21:32:50.151Z,96756.91
2023-06-22T21:35:17.373Z,96759.53
2023-06-22T21:37:45.985Z,96762.19
2023-06-22T21:40:13.357Z,96759.22
2023-06-22T21:42:40.869Z,96759.44
2023-06-22T21:45:08.272Z,96755.38
2023-06-22T21:47:35.443Z,96759.97
2023-06-22T21:50:02.504Z,96737.53
2023-06-22T21:52:30.969Z,96742.91
2023-06-22T21:54:58.394Z,96748.97
2023-06-22T21:57:28.895Z,96756.59
2023-06-22T21:59:56.406Z,96756.78
